Time;durP1;ratioP1;P1;durP2;ratioP2;P2;SDS_P1;SDS_P2;PMS_P1;PMS_P2;Temp;Humidity;BMP_temperature;BMP_pressure;BME280_temperature;BME280_humidity;BME280_pressure;Samples;Min_cycle;Max_cycle;Signal;HPM_P1;HPM_P2
2023/02/23 00:01:28;;;;;;;21.70;12.90;;;;;;;13.14;51.78;97095.75;4950268;28;20434;-70
2023/02/23 00:03:55;;;;;;;18.40;13.10;;;;;;;13.13;51.60;97096.75;4949720;28;20974;-70
2023/02/23 00:06:21;;;;;;;25.23;14.20;;;;;;;13.16;51.97;97091.97;4959098;28;20422;-69
2023/02/23 00:08:47;;;;;;;23.57;13.53;;;;;;;13.16;51.81;97099.03;4950088;28;20430;-70
2023/02/23 00:11:14;;;;;;;23.13;14.53;;;;;;;13.15;51.89;97094.75;4951756;28;21252;-70
2023/02/23 00:13:41;;;;;;;18.47;14.00;;;;;;;13.18;51.96;97089.97;4956544;28;20692;-71
2023/02/23 00:16:12;;;;;;;19.90;14.03;;;;;;;13.16;52.01;97091.13;4951940;28;20426;-70
2023/02/23 00:18:47;;;;;;;21.43;15.30;;;;;;;13.21;51.84;97088.84;4958899;28;20424;-68
2023/02/23 00:21:24;;;;;;;22.90;14.60;;;;;;;13.16;52.59;97091.97;4940301;28;20499;-69
2023/02/23 00:23:50;;;;;;;17.63;13.60;;;;;;;13.19;52.54;97090.81;4933943;28;20428;-71
2023/02/23 00:26:19;;;;;;;20.57;14.57;;;;;;;13.18;52.65;97089.97;4952777;28;20847;-71
2023/02/23 00:28:47;;;;;;;21.53;14.03;;;;;;;13.00;53.54;97098.09;4953715;28;20466;-71
2023/02/23 00:31:12;;;;;;;21.27;14.17;;;;;;;13.03;53.96;97100.41;4956791;28;20819;-71
2023/02/23 00:33:39;;;;;;;20.10;14.50;;;;;;;13.15;54.21;97094.75;4951699;28;20450;-70
2023/02/23 00:36:07;;;;;;;23.33;17.20;;;;;;;13.11;54.59;97094.28;4956080;28;20248;-70
2023/02/23 00:38:34;;;;;;;28.17;16.77;;;;;;;13.08;55.35;97088.56;4958916;28;20517;-71
2023/02/23 00:41:15;;;;;;;22.03;16.97;;;;;;;13.09;55.82;97085.75;4951265;28;20513;-70
2023/02/23 00:43:46;;;;;;;31.87;22.60;;;;;;;13.07;56.05;97087.72;4960998;28;20810;-70
2023/02/23 00:46:15;;;;;;;32.80;21.00;;;;;;;13.02;56.20;97090.88;4951764;28;20802;-70
2023/02/23 00:48:41;;;;;;;29.00;18.30;;;;;;;13.01;56.29;97093.69;4958916;28;20443;-70
2023/02/23 00:51:06;;;;;;;25.40;15.67;;;;;;;13.03;56.11;97081.19;4955747;28;20531;-70
2023/02/23 00:53:32;;;;;;;24.00;15.43;;;;;;;13.06;55.68;97081.66;4953927;28;20706;-71
2023/02/23 00:55:57;;;;;;;20.90;14.60;;;;;;;13.02;55.64;97080.34;4949752;28;20190;-70
2023/02/23 00:58:24;;;;;;;22.57;14.53;;;;;;;13.01;56.17;97089.22;4938167;29;20186;-71
2023/02/23 01:00:49;;;;;;;24.43;15.50;;;;;;;13.03;55.99;97082.00;4952089;28;20289;-70
2023/02/23 01:03:15;;;;;;;23.93;14.33;;;;;;;12.99;56.36;97080.69;4950225;28;20788;-71
2023/02/23 01:05:40;;;;;;;24.67;16.40;;;;;;;12.97;56.83;97076.59;4949238;28;20226;-70
2023/02/23 01:08:08;;;;;;;28.47;15.43;;;;;;;12.97;56.89;97077.44;4953907;28;20193;-70
2023/02/23 01:10:45;;;;;;;22.67;14.90;;;;;;;13.00;57.25;97079.69;4952966;28;20274;-70
2023/02/23 01:13:11;;;;;;;28.60;16.60;;;;;;;12.96;57.23;97077.56;4951660;28;20855;-69
2023/02/23 01:15:42;;;;;;;24.80;17.17;;;;;;;12.96;57.41;97075.78;4949105;28;20414;-70
2023/02/23 01:18:08;;;;;;;26.50;18.77;;;;;;;12.94;57.79;97082.19;4950085;28;20189;-70
2023/02/23 01:20:35;;;;;;;24.23;17.90;;;;;;;12.95;57.71;97079.41;4950008;28;20430;-70
2023/02/23 01:23:01;;;;;;;28.50;19.33;;;;;;;12.93;57.88;97076.13;4953866;28;21098;-71
2023/02/23 01:25:27;;;;;;;36.50;22.83;;;;;;;12.87;57.93;97076.78;4950779;28;20434;-71
2023/02/23 01:27:53;;;;;;;33.73;21.93;;;;;;;12.94;57.86;97074.28;4949497;28;20513;-71
2023/02/23 01:30:19;;;;;;;24.90;17.40;;;;;;;12.94;58.28;97077.75;4949945;28;20856;-71
2023/02/23 01:32:44;;;;;;;27.30;17.30;;;;;;;12.92;58.57;97074.47;4949266;28;20320;-71
2023/02/23 01:35:11;;;;;;;23.17;16.10;;;;;;;12.88;58.97;97074.00;4951184;28;20187;-69
2023/02/23 01:37:39;;;;;;;27.27;16.43;;;;;;;12.91;58.85;97075.47;4949532;28;20678;-71
2023/02/23 01:40:10;;;;;;;26.00;17.60;;;;;;;12.99;59.13;97069.34;4949401;28;20434;-71
2023/02/23 01:42:38;;;;;;;24.73;17.57;;;;;;;13.03;58.97;97068.84;4951806;28;20446;-72
2023/02/23 01:45:23;;;;;;;31.07;18.70;;;;;;;12.94;58.81;97067.25;4949770;28;21196;-72
2023/02/23 01:47:50;;;;;;;24.10;17.73;;;;;;;12.81;59.29;97069.59;4947695;28;20452;-70
2023/02/23 01:50:15;;;;;;;22.03;16.50;;;;;;;12.86;59.36;97065.44;4937888;28;20429;-70
2023/02/23 01:52:46;;;;;;;24.33;16.63;;;;;;;12.94;59.39;97067.25;4940889;28;20476;-71
2023/02/23 01:55:12;;;;;;;23.83;16.10;;;;;;;12.97;59.48;97060.81;4959285;28;20564;-71
2023/02/23 01:57:39;;;;;;;23.83;15.10;;;;;;;12.95;59.60;97062.78;4930885;28;20896;-72
2023/02/23 02:00:13;;;;;;;22.07;16.03;;;;;;;12.92;59.95;97065.78;4938153;28;20429;-71
2023/02/23 02:02:39;;;;;;;22.47;16.07;;;;;;;12.85;60.30;97065.63;4959668;28;20789;-72
2023/02/23 02:05:13;;;;;;;28.70;16.33;;;;;;;12.83;60.19;97059.72;4935567;29;20429;-71
2023/02/23 02:07:43;;;;;;;24.50;15.83;;;;;;;12.90;60.33;97060.66;4955019;28;20190;-71
2023/02/23 02:12:35;;;;;;;24.77;16.53;;;;;;;12.95;60.46;97057.53;4938114;28;20997;-72
2023/02/23 02:15:03;;;;;;;20.50;16.00;;;;;;;13.00;60.26;97058.66;4957104;28;20443;-72
2023/02/23 02:18:07;;;;;;;22.93;16.00;;;;;;;12.97;60.55;97056.38;4932523;29;20254;-72
2023/02/23 02:20:51;;;;;;;27.57;18.57;;;;;;;12.95;60.85;97053.09;4927352;28;21156;-71
2023/02/23 02:23:42;;;;;;;27.10;17.23;;;;;;;13.00;60.91;97050.75;4952845;28;20418;-70
2023/02/23 02:26:32;;;;;;;21.20;15.37;;;;;;;13.03;61.50;97050.41;4951857;28;20485;-70
2023/02/23 02:29:41;;;;;;;24.47;16.17;;;;;;;13.12;61.43;97050.38;4949087;28;20458;-70
2023/02/23 02:32:38;;;;;;;22.20;13.80;;;;;;;13.07;61.63;97050.88;4945524;28;20479;-70
2023/02/23 02:35:30;;;;;;;23.80;15.03;;;;;;;12.91;62.24;97049.16;4949837;28;20429;-69
2023/02/23 02:38:02;;;;;;;19.20;13.97;;;;;;;12.99;62.29;97043.03;4941531;28;20508;-70
2023/02/23 02:40:35;;;;;;;19.57;14.50;;;;;;;13.00;62.09;97042.06;4948081;28;20417;-70
2023/02/23 02:43:14;;;;;;;21.40;13.90;;;;;;;13.08;62.17;97042.00;4962490;28;20927;-69
2023/02/23 02:45:56;;;;;;;26.07;14.30;;;;;;;13.15;61.69;97042.13;4963971;28;20480;-70
2023/02/23 02:48:43;;;;;;;20.80;15.50;;;;;;;13.15;61.84;97042.13;4938161;29;20422;-69
2023/02/23 02:51:29;;;;;;;19.37;13.87;;;;;;;13.14;61.92;97037.88;4952405;28;20429;-71
2023/02/23 02:54:05;;;;;;;20.17;13.97;;;;;;;13.16;62.07;97034.09;4935811;28;20429;-70
2023/02/23 02:56:34;;;;;;;20.33;14.03;;;;;;;13.22;61.82;97032.56;4942705;28;20437;-70
2023/02/23 04:18:53;;;;;;;21.33;13.30;;;;;;;13.08;62.02;97047.28;4931228;28;20974;-71
2023/02/23 04:21:19;;;;;;;21.50;13.13;;;;;;;12.92;62.76;97042.91;4939409;29;20485;-72
2023/02/23 04:23:44;;;;;;;21.87;12.70;;;;;;;12.79;63.65;97046.06;4950709;28;21248;-69
2023/02/23 04:26:10;;;;;;;19.10;14.10;;;;;;;12.77;63.67;97045.44;4955019;28;20662;-70
2023/02/23 04:28:35;;;;;;;19.20;13.83;;;;;;;12.82;63.41;97042.28;4955188;28;20613;-71
2023/02/23 04:31:01;;;;;;;18.90;12.37;;;;;;;12.89;63.62;97048.50;4947205;28;20334;-71
2023/02/23 04:33:26;;;;;;;16.63;11.37;;;;;;;12.96;63.21;97048.63;4944570;28;20210;-71
2023/02/23 04:35:53;;;;;;;16.30;12.37;;;;;;;13.01;62.92;97047.13;4950470;28;20213;-72
2023/02/23 04:38:19;;;;;;;16.50;11.97;;;;;;;13.02;62.76;97038.25;4950316;28;20182;-70
2023/02/23 04:40:44;;;;;;;14.87;11.80;;;;;;;13.03;62.84;97046.97;4950420;28;20540;-71
2023/02/23 04:43:14;;;;;;;17.60;11.33;;;;;;;13.04;62.92;97040.72;4955008;28;20996;-70
2023/02/23 04:45:40;;;;;;;16.70;11.50;;;;;;;12.99;62.69;97051.75;4950441;28;20210;-70
2023/02/23 04:48:06;;;;;;;16.50;12.10;;;;;;;12.99;62.94;97051.75;4951952;28;21029;-71
2023/02/23 04:50:31;;;;;;;17.70;12.17;;;;;;;13.02;62.83;97054.03;4950386;28;20927;-71
2023/02/23 04:52:57;;;;;;;20.60;11.43;;;;;;;12.99;63.02;97048.31;4938780;28;20450;-71
2023/02/23 04:55:23;;;;;;;19.43;11.53;;;;;;;13.04;63.08;97059.16;4956775;28;20247;-71
2023/02/23 04:57:50;;;;;;;18.63;11.37;;;;;;;13.10;62.53;97049.75;4951031;28;20230;-71
2023/02/23 05:00:16;;;;;;;16.53;10.73;;;;;;;13.13;62.84;97054.66;4956816;28;20441;-71
2023/02/23 05:02:42;;;;;;;18.03;11.07;;;;;;;13.16;62.73;97055.16;4950681;28;20981;-71
2023/02/23 05:05:08;;;;;;;13.73;11.37;;;;;;;13.07;62.49;97050.88;4949133;28;20517;-72
2023/02/23 05:07:35;;;;;;;16.63;11.87;;;;;;;13.08;62.48;97052.53;4950261;28;20260;-71
2023/02/23 05:10:00;;;;;;;21.70;12.50;;;;;;;12.99;62.97;97056.19;4952083;28;20482;-70
2023/02/23 05:12:26;;;;;;;18.30;12.40;;;;;;;12.94;63.05;97054.09;4957775;28;20569;-71
2023/02/23 05:14:51;;;;;;;17.07;12.80;;;;;;;12.94;63.14;97056.72;4912417;28;20667;-70
2023/02/23 05:17:17;;;;;;;14.80;11.67;;;;;;;12.99;63.13;97048.31;4949901;28;20187;-71
2023/02/23 05:19:42;;;;;;;20.53;13.13;;;;;;;13.00;62.91;97055.22;4929866;28;20257;-71
2023/02/23 05:22:11;;;;;;;15.60;11.97;;;;;;;13.06;62.88;97052.72;4931606;28;20206;-71
2023/02/23 05:24:40;;;;;;;20.07;13.60;;;;;;;13.06;62.99;97057.13;4956142;28;20189;-71
2023/02/23 05:27:07;;;;;;;16.03;12.60;;;;;;;13.06;62.49;97055.34;4941002;28;20429;-70
2023/02/23 05:29:32;;;;;;;22.33;12.70;;;;;;;13.02;62.71;97061.94;4969872;28;20555;-71
2023/02/23 05:31:58;;;;;;;17.10;11.10;;;;;;;13.02;62.60;97054.03;4964076;28;21108;-70
2023/02/23 05:34:23;;;;;;;18.27;14.37;;;;;;;12.91;62.97;97051.78;4954133;28;20240;-70
2023/02/23 05:36:48;;;;;;;23.37;14.50;;;;;;;12.90;63.28;97052.78;4954371;28;20209;-70
2023/02/23 05:39:14;;;;;;;19.80;15.00;;;;;;;12.93;63.21;97062.13;4949762;28;20637;-70
2023/02/23 05:41:40;;;;;;;25.17;17.07;;;;;;;12.97;62.91;97052.91;4953921;28;20209;-71
2023/02/23 05:44:05;;;;;;;28.47;18.80;;;;;;;13.01;62.89;97057.66;4954101;28;20273;-69
2023/02/23 05:46:31;;;;;;;40.53;22.00;;;;;;;12.97;62.86;97051.13;4949661;28;20186;-71
2023/02/23 05:48:58;;;;;;;34.60;25.43;;;;;;;13.01;62.84;97057.66;4948781;28;20607;-71
2023/02/23 05:51:23;;;;;;;28.97;20.13;;;;;;;13.00;62.60;97056.00;4957857;28;20214;-71
2023/02/23 05:53:48;;;;;;;22.17;17.00;;;;;;;12.94;62.53;97055.88;4958767;28;20485;-71
2023/02/23 05:56:19;;;;;;;65.03;42.37;;;;;;;12.96;63.02;97057.38;4961857;28;20186;-71
2023/02/23 05:58:47;;;;;;;33.83;20.07;;;;;;;12.95;62.99;97054.88;4961254;28;20242;-73
2023/02/23 06:01:13;;;;;;;18.67;13.40;;;;;;;12.89;63.04;97059.03;4958686;28;20484;-71
2023/02/23 06:03:38;;;;;;;19.07;13.20;;;;;;;12.79;63.42;97063.66;4959030;28;20429;-70
2023/02/23 06:06:04;;;;;;;19.23;13.50;;;;;;;12.72;63.46;97059.09;4958607;28;20273;-70
2023/02/23 06:08:29;;;;;;;17.77;13.03;;;;;;;12.79;63.46;97069.72;4969379;28;20190;-72
2023/02/23 06:10:55;;;;;;;16.30;12.47;;;;;;;12.82;63.77;97061.50;4970960;28;20292;-71
2023/02/23 06:13:20;;;;;;;23.53;15.63;;;;;;;12.82;63.71;97060.72;4968669;28;20252;-71
2023/02/23 06:15:46;;;;;;;18.90;13.27;;;;;;;12.83;63.57;97059.72;4962972;28;20179;-71
2023/02/23 06:18:11;;;;;;;17.70;13.93;;;;;;;12.90;63.40;97065.94;4955343;28;20642;-71
2023/02/23 06:20:37;;;;;;;17.63;13.27;;;;;;;12.94;63.37;97066.41;4954294;28;20236;-71
2023/02/23 06:23:03;;;;;;;20.67;14.80;;;;;;;12.95;63.16;97071.50;4961431;28;20259;-71
2023/02/23 06:25:29;;;;;;;21.87;13.93;;;;;;;12.95;63.34;97074.13;4954342;28;20631;-72
2023/02/23 06:27:54;;;;;;;18.53;13.17;;;;;;;12.93;63.13;97078.75;4952284;28;20509;-72
2023/02/23 06:30:20;;;;;;;18.77;12.50;;;;;;;12.92;63.27;97073.66;4953488;28;20190;-72
2023/02/23 06:32:46;;;;;;;18.83;12.90;;;;;;;12.95;62.84;97071.50;4948689;28;20237;-74
2023/02/23 06:35:11;;;;;;;17.07;11.33;;;;;;;12.92;62.89;97071.03;4955969;28;20197;-72
2023/02/23 06:37:37;;;;;;;19.30;12.17;;;;;;;12.92;63.09;97077.09;4963801;28;20210;-71
2023/02/23 06:40:03;;;;;;;15.27;10.83;;;;;;;12.87;63.26;97074.16;4967067;28;20186;-72
2023/02/23 06:42:28;;;;;;;16.10;10.77;;;;;;;12.85;63.08;97084.84;4951794;28;20209;-71
2023/02/23 06:44:54;;;;;;;17.93;13.03;;;;;;;12.81;63.50;97088.00;4957073;28;20426;-71
2023/02/23 06:47:19;;;;;;;18.00;12.70;;;;;;;12.66;63.90;97086.06;4951661;28;20217;-72
2023/02/23 06:49:46;;;;;;;20.40;13.20;;;;;;;12.75;63.95;97090.28;4953194;28;20191;-72
2023/02/23 06:52:12;;;;;;;23.37;12.97;;;;;;;12.82;63.57;97089.63;4959241;28;20643;-71
2023/02/23 06:54:38;;;;;;;17.60;12.47;;;;;;;12.89;63.34;97094.06;4952699;28;20696;-72
2023/02/23 06:57:05;;;;;;;16.73;10.10;;;;;;;12.86;63.43;97096.19;4940268;28;20457;-71
2023/02/23 06:59:31;;;;;;;17.40;11.33;;;;;;;12.77;63.43;97094.56;4954490;28;20430;-71
2023/02/23 07:01:56;;;;;;;21.87;12.63;;;;;;;12.70;64.05;97107.56;4956133;28;20522;-72
2023/02/23 07:04:22;;;;;;;19.30;12.90;;;;;;;12.72;63.84;97106.44;4961110;28;20261;-72
2023/02/23 07:06:47;;;;;;;17.30;13.27;;;;;;;12.71;63.83;97112.69;4950991;28;20859;-72
2023/02/23 07:09:14;;;;;;;21.40;14.70;;;;;;;12.63;64.54;97115.31;4950897;28;20194;-72
2023/02/23 07:11:40;;;;;;;19.80;13.23;;;;;;;12.73;64.06;97105.41;4950263;28;20214;-71
2023/02/23 07:14:06;;;;;;;17.77;13.63;;;;;;;12.78;64.00;97109.34;4957232;28;20489;-71
2023/02/23 07:16:31;;;;;;;19.17;12.63;;;;;;;12.82;63.94;97110.66;4957973;28;20446;-71
2023/02/23 07:18:57;;;;;;;20.90;12.03;;;;;;;12.87;64.07;97116.22;4942732;28;20182;-72
2023/02/23 07:21:22;;;;;;;15.63;11.53;;;;;;;12.93;63.77;97118.19;4961123;28;20213;-71
2023/02/23 07:23:48;;;;;;;17.37;11.10;;;;;;;12.83;64.08;97118.38;4958557;28;20213;-71
2023/02/23 07:26:15;;;;;;;17.77;11.20;;;;;;;12.89;63.87;97122.16;4957453;28;20182;-69
2023/02/23 07:28:41;;;;;;;20.03;11.30;;;;;;;12.93;64.05;97118.19;4958011;28;20779;-71
2023/02/23 07:31:07;;;;;;;20.10;10.57;;;;;;;12.99;63.70;97122.78;4938837;28;20441;-70
2023/02/23 07:33:32;;;;;;;17.47;10.03;;;;;;;13.00;63.75;97124.41;4956217;28;20528;-71
2023/02/23 07:35:58;;;;;;;12.60;9.37;;;;;;;13.03;63.25;97129.34;4960145;28;20290;-70
2023/02/23 07:38:23;;;;;;;11.20;9.23;;;;;;;13.07;63.19;97124.56;4956909;28;20208;-70
2023/02/23 07:40:49;;;;;;;12.03;9.00;;;;;;;13.06;63.16;97129.00;4958195;28;20209;-70
2023/02/23 07:43:15;;;;;;;16.37;10.40;;;;;;;13.09;63.06;97122.56;4959645;28;20202;-70
2023/02/23 07:45:40;;;;;;;17.77;9.87;;;;;;;13.12;63.60;97126.66;4957297;28;20451;-72
2023/02/23 07:48:06;;;;;;;17.93;10.10;;;;;;;13.19;63.10;97127.66;4957029;28;20191;-70
2023/02/23 07:50:31;;;;;;;18.03;11.47;;;;;;;13.18;63.61;97126.00;4959602;28;20186;-71
2023/02/23 07:52:57;;;;;;;18.40;12.70;;;;;;;13.21;63.97;97123.03;4956242;28;20230;-69
2023/02/23 07:55:22;;;;;;;17.87;12.93;;;;;;;13.26;63.88;97133.84;4962852;28;20182;-70
2023/02/23 07:57:48;;;;;;;16.37;13.03;;;;;;;13.30;64.04;97129.06;4962063;28;20566;-70
2023/02/23 08:00:14;;;;;;;20.10;12.83;;;;;;;13.34;63.98;97127.75;4958101;28;20322;-70
2023/02/23 08:02:39;;;;;;;17.40;11.57;;;;;;;13.34;63.57;97135.63;4932081;29;20210;-70
2023/02/23 08:05:05;;;;;;;17.07;11.87;;;;;;;13.39;63.81;97133.31;4938261;28;20190;-70
2023/02/23 08:07:32;;;;;;;16.03;12.77;;;;;;;13.43;63.73;97129.34;4925103;29;20265;-70
2023/02/23 08:09:58;;;;;;;19.17;12.07;;;;;;;13.45;63.88;97135.28;4951702;28;20256;-69
2023/02/23 08:12:23;;;;;;;19.70;14.70;;;;;;;13.44;64.30;97131.00;4963165;28;20501;-71
2023/02/23 08:14:48;;;;;;;25.80;15.90;;;;;;;13.48;64.18;97128.88;4959687;28;20202;-70
2023/02/23 08:17:14;;;;;;;25.17;17.13;;;;;;;13.48;64.06;97132.31;4939138;28;20209;-71
2023/02/23 08:19:39;;;;;;;34.10;23.10;;;;;;;13.49;64.01;97133.94;4965391;28;20193;-70
2023/02/23 08:22:05;;;;;;;29.03;20.17;;;;;;;13.52;63.82;97136.25;4961422;28;20202;-70
2023/02/23 08:24:30;;;;;;;19.93;13.33;;;;;;;13.57;63.55;97135.72;4964380;28;20673;-70
2023/02/23 08:26:57;;;;;;;13.10;9.50;;;;;;;13.67;62.86;97136.31;4962207;28;20815;-69
2023/02/23 08:29:22;;;;;;;16.17;11.37;;;;;;;13.70;63.10;97139.59;4944006;28;20178;-70
2023/02/23 08:31:50;;;;;;;15.73;11.10;;;;;;;13.80;63.44;97137.56;4968051;28;20480;-70
2023/02/23 08:34:16;;;;;;;26.30;12.47;;;;;;;13.83;63.51;97139.84;4961774;28;20178;-70
2023/02/23 08:36:42;;;;;;;23.37;13.73;;;;;;;13.93;63.78;97139.59;4964110;28;20422;-70
2023/02/23 08:39:08;;;;;;;15.13;11.67;;;;;;;14.01;63.25;97136.09;4958047;28;20198;-70
2023/02/23 08:41:34;;;;;;;16.30;9.00;;;;;;;14.01;62.62;97138.72;4966649;28;20438;-72
2023/02/23 08:43:59;;;;;;;14.57;10.43;;;;;;;14.06;61.35;97139.84;4961994;28;20787;-70
2023/02/23 08:46:25;;;;;;;12.47;7.50;;;;;;;14.10;61.15;97135.88;4957646;28;20217;-71
2023/02/23 08:48:51;;;;;;;16.07;8.83;;;;;;;14.15;60.75;97139.81;4955573;28;20201;-70
2023/02/23 08:51:16;;;;;;;11.00;7.10;;;;;;;14.18;60.23;97136.78;4954089;28;20213;-71
2023/02/23 08:53:42;;;;;;;11.17;7.10;;;;;;;14.19;60.09;97133.16;4955009;28;20422;-70
2023/02/23 08:56:07;;;;;;;10.00;6.20;;;;;;;14.21;59.56;97145.19;4962245;28;20565;-71
2023/02/23 08:58:34;;;;;;;14.17;6.50;;;;;;;14.23;59.32;97143.19;4954782;28;20183;-70
2023/02/23 09:00:59;;;;;;;13.23;6.57;;;;;;;14.29;58.96;97139.84;4960357;28;20749;-70
2023/02/23 09:03:27;;;;;;;11.93;6.50;;;;;;;14.32;59.00;97143.94;4955009;28;20454;-70
2023/02/23 09:05:53;;;;;;;19.43;6.90;;;;;;;14.28;58.61;97148.75;4961921;28;20732;-70
2023/02/23 09:08:19;;;;;;;8.23;5.57;;;;;;;14.37;58.13;97144.22;4954825;28;20934;-69
2023/02/23 09:10:44;;;;;;;13.97;6.70;;;;;;;14.42;57.93;97143.69;4944521;29;20430;-71
2023/02/23 09:13:11;;;;;;;10.60;5.87;;;;;;;14.43;58.07;97155.88;4964434;28;20240;-70
2023/02/23 09:15:40;;;;;;;22.37;5.33;;;;;;;14.47;58.12;97146.63;4954540;28;20328;-71
2023/02/23 09:18:06;;;;;;;13.50;6.43;;;;;;;14.50;57.86;97155.97;4954563;28;20422;-71
2023/02/23 09:20:32;;;;;;;13.13;5.80;;;;;;;14.51;57.98;97155.78;4954839;28;20418;-70
2023/02/23 09:22:58;;;;;;;8.80;5.00;;;;;;;14.52;57.58;97151.34;4961853;28;20791;-70
2023/02/23 09:25:24;;;;;;;10.07;4.90;;;;;;;14.56;57.59;97144.72;4954398;28;20422;-70
2023/02/23 09:27:51;;;;;;;16.27;5.90;;;;;;;14.62;57.69;97153.75;4955173;28;20418;-71
2023/02/23 09:30:19;;;;;;;9.10;4.90;;;;;;;14.64;57.50;97151.72;4964247;28;20189;-70
2023/02/23 09:32:50;;;;;;;9.53;6.00;;;;;;;14.68;57.57;97153.03;4958502;28;20491;-70
2023/02/23 09:35:17;;;;;;;9.13;5.20;;;;;;;14.70;57.30;97157.13;4957442;28;20425;-70
2023/02/23 09:37:53;;;;;;;18.40;5.67;;;;;;;14.72;57.01;97151.69;4959919;28;20520;-70
2023/02/23 09:40:25;;;;;;;8.63;5.73;;;;;;;14.75;56.78;97148.69;4958491;28;20436;-71
2023/02/23 09:43:21;;;;;;;11.30;5.50;;;;;;;14.78;56.67;97148.31;4944982;29;20514;-70
2023/02/23 09:45:50;;;;;;;6.80;5.03;;;;;;;14.84;56.79;97147.63;4975991;28;20433;-70
2023/02/23 09:48:21;;;;;;;14.77;5.70;;;;;;;14.89;56.47;97141.78;4959671;28;20418;-71
2023/02/23 09:50:50;;;;;;;13.17;5.00;;;;;;;15.01;56.47;97144.78;4963890;28;20868;-71
2023/02/23 09:53:37;;;;;;;10.43;4.47;;;;;;;15.15;56.46;97143.97;4957737;28;20457;-71
2023/02/23 09:56:08;;;;;;;13.63;5.23;;;;;;;15.30;55.92;97137.84;4945457;28;20438;-70
2023/02/23 09:58:34;;;;;;;8.93;5.70;;;;;;;15.49;55.77;97139.09;4962512;28;20433;-71
2023/02/23 10:01:15;;;;;;;6.70;4.47;;;;;;;15.71;55.13;97137.34;4977333;28;20457;-71
2023/02/23 10:04:02;;;;;;;13.40;5.73;;;;;;;15.95;54.30;97138.00;4964896;28;20432;-71
2023/02/23 10:06:27;;;;;;;10.47;4.87;;;;;;;16.16;53.50;97145.13;4957335;28;20442;-70
2023/02/23 10:09:13;;;;;;;9.13;4.57;;;;;;;16.35;53.16;97143.66;4953659;28;20850;-70
2023/02/23 10:11:45;;;;;;;10.20;3.73;;;;;;;16.48;52.21;97150.06;4962163;28;20224;-71
2023/02/23 10:14:21;;;;;;;7.70;4.67;;;;;;;16.55;51.69;97148.28;4980232;28;20548;-70
2023/02/23 10:17:04;;;;;;;6.37;3.63;;;;;;;16.66;51.08;97147.75;4942232;28;20441;-71
2023/02/23 10:19:43;;;;;;;9.13;4.67;;;;;;;16.77;50.66;97145.59;4953653;28;20405;-70
2023/02/23 10:22:11;;;;;;;8.00;3.67;;;;;;;16.80;49.79;97145.22;4960879;28;20505;-70
2023/02/23 10:24:40;;;;;;;6.20;3.70;;;;;;;16.79;49.94;97147.06;4957102;28;20805;-70
2023/02/23 10:27:11;;;;;;;4.53;3.10;;;;;;;16.74;49.66;97144.16;4957548;28;20430;-69
2023/02/23 10:29:56;;;;;;;12.83;3.90;;;;;;;16.73;49.01;97151.28;4961513;28;20464;-71
2023/02/23 10:32:31;;;;;;;8.80;3.70;;;;;;;16.73;49.28;97148.63;4968594;28;20461;-71
2023/02/23 10:34:58;;;;;;;10.07;3.33;;;;;;;16.68;48.89;97151.03;4959396;28;20464;-70
2023/02/23 10:37:24;;;;;;;16.93;3.83;;;;;;;16.69;48.87;97150.03;4956457;28;20465;-71
2023/02/23 10:39:50;;;;;;;6.87;3.20;;;;;;;16.72;49.18;97147.00;4929355;29;20470;-71
2023/02/23 10:42:27;;;;;;;3.10;2.73;;;;;;;16.64;48.12;97146.31;4960477;28;20202;-70
2023/02/23 10:44:52;;;;;;;8.50;3.43;;;;;;;16.69;48.18;97143.94;4956487;28;20430;-70
2023/02/23 10:47:20;;;;;;;6.50;2.73;;;;;;;16.74;48.19;97144.16;4957183;28;20480;-71
2023/02/23 10:49:54;;;;;;;4.50;2.77;;;;;;;16.82;47.78;97143.19;4970614;28;20656;-71
2023/02/23 10:52:20;;;;;;;4.47;3.00;;;;;;;16.81;46.27;97144.19;4959497;28;20550;-70
2023/02/23 10:54:50;;;;;;;7.60;2.40;;;;;;;16.95;46.16;97140.66;4959997;28;20462;-71
2023/02/23 10:57:29;;;;;;;5.00;2.90;;;;;;;17.03;46.68;97145.78;4960322;28;20182;-71
2023/02/23 11:00:25;;;;;;;16.07;3.27;;;;;;;17.09;45.95;97143.38;4982426;28;20426;-70
2023/02/23 11:02:52;;;;;;;6.60;3.13;;;;;;;17.08;45.19;97141.75;4934647;29;20800;-71
2023/02/23 11:05:35;;;;;;;6.90;3.10;;;;;;;17.09;45.16;97143.38;4955737;28;20433;-70
2023/02/23 11:08:09;;;;;;;6.57;3.10;;;;;;;17.18;45.62;97136.91;4939867;29;20430;-70
2023/02/23 11:10:35;;;;;;;10.10;4.07;;;;;;;17.38;45.80;97136.19;4939504;29;20436;-71
2023/02/23 11:13:00;;;;;;;7.13;3.10;;;;;;;17.58;45.58;97129.13;4965389;28;20559;-71
2023/02/23 11:15:27;;;;;;;14.40;3.80;;;;;;;17.87;44.90;97131.66;4939704;28;20297;-71
2023/02/23 11:17:58;;;;;;;5.17;3.00;;;;;;;18.10;44.84;97129.47;4938554;29;20191;-71
2023/02/23 11:20:38;;;;;;;5.80;3.27;;;;;;;18.27;43.87;97127.22;4954166;28;20481;-70
2023/02/23 11:23:27;;;;;;;11.63;3.70;;;;;;;18.36;43.03;97121.75;4935617;29;20431;-70
2023/02/23 11:25:58;;;;;;;10.63;3.37;;;;;;;18.35;42.61;97118.25;4930018;29;20430;-71
2023/02/23 11:28:35;;;;;;;11.63;2.83;;;;;;;18.24;42.78;97113.56;4938217;28;20521;-70
2023/02/23 11:31:13;;;;;;;4.40;2.63;;;;;;;18.24;42.89;97119.72;4958002;28;20457;-71
2023/02/23 11:33:39;;;;;;;6.57;2.60;;;;;;;18.21;43.32;97114.81;4949861;28;20473;-71
2023/02/23 11:36:16;;;;;;;6.67;2.87;;;;;;;18.17;42.81;97112.75;4937505;29;20465;-70
2023/02/23 11:38:45;;;;;;;6.20;3.20;;;;;;;18.19;43.09;97106.22;4964022;28;20260;-71
2023/02/23 11:41:22;;;;;;;6.70;3.20;;;;;;;18.25;43.82;97104.59;4963079;28;20481;-71
2023/02/23 11:43:55;;;;;;;7.90;3.10;;;;;;;18.35;43.20;97104.19;4958971;28;20513;-71
2023/02/23 11:46:21;;;;;;;9.67;3.20;;;;;;;18.54;41.64;97098.03;4953055;28;20430;-71
2023/02/23 11:48:53;;;;;;;9.60;3.10;;;;;;;19.04;41.96;97094.09;4937838;29;20853;-72
2023/02/23 11:51:29;;;;;;;11.10;2.90;;;;;;;19.37;42.28;97095.00;4954626;28;20206;-71
2023/02/23 11:53:54;;;;;;;6.50;2.73;;;;;;;19.54;41.21;97092.66;4944234;29;20429;-71
2023/02/23 11:56:22;;;;;;;7.57;2.53;;;;;;;19.52;39.62;97089.44;4963247;28;20460;-71
2023/02/23 11:59:07;;;;;;;6.10;2.37;;;;;;;19.42;39.93;97088.03;4956045;28;20194;-72
2023/02/23 12:01:50;;;;;;;7.50;2.70;;;;;;;19.34;40.06;97086.41;4937599;28;20456;-71
2023/02/23 12:04:35;;;;;;;4.83;2.10;;;;;;;19.24;40.13;97082.59;4937776;28;20422;-71
2023/02/23 12:07:21;;;;;;;7.27;2.93;;;;;;;19.11;40.35;97086.09;4979566;28;20602;-69
2023/02/23 12:10:06;;;;;;;5.70;2.77;;;;;;;19.09;40.76;97081.00;4932127;28;20507;-70
2023/02/23 12:12:45;;;;;;;7.47;2.80;;;;;;;19.09;40.58;97082.88;4946714;28;20519;-70
2023/02/23 12:15:18;;;;;;;10.90;5.30;;;;;;;19.00;41.93;97085.72;4953337;28;20454;-71
2023/02/23 12:17:48;;;;;;;15.57;7.00;;;;;;;18.76;43.24;97084.56;4936794;29;20506;-71
2023/02/23 12:20:17;;;;;;;11.57;7.27;;;;;;;18.58;44.35;97083.34;4933957;28;20446;-71
2023/02/23 12:23:06;;;;;;;16.13;8.10;;;;;;;18.47;44.66;97077.84;4945566;29;20442;-71
2023/02/23 12:25:44;;;;;;;12.43;7.50;;;;;;;18.36;44.92;97081.97;4954603;28;20444;-70
2023/02/23 12:28:16;;;;;;;16.17;7.70;;;;;;;18.25;45.16;97084.22;4945377;28;20429;-72
2023/02/23 12:30:50;;;;;;;16.57;7.80;;;;;;;18.15;45.68;97078.47;4937716;29;20441;-71
2023/02/23 12:33:19;;;;;;;13.70;7.50;;;;;;;18.08;45.76;97077.66;4936932;28;20473;-70
2023/02/23 12:36:05;;;;;;;13.33;7.60;;;;;;;18.03;45.99;97074.78;4956228;28;20423;-71
2023/02/23 12:38:47;;;;;;;14.23;6.63;;;;;;;18.06;45.67;97071.75;4956218;28;20422;-71
2023/02/23 12:41:16;;;;;;;10.57;6.70;;;;;;;17.99;45.72;97069.09;4976944;28;20454;-69
2023/02/23 12:43:54;;;;;;;15.80;6.23;;;;;;;17.92;45.87;97073.56;4941993;28;20421;-71
2023/02/23 12:46:29;;;;;;;11.13;6.20;;;;;;;17.84;46.10;97073.72;4934554;28;20445;-71
2023/02/23 12:49:31;;;;;;;12.00;5.83;;;;;;;17.77;45.86;97074.53;4929842;28;20424;-71
2023/02/23 12:52:07;;;;;;;14.83;5.53;;;;;;;17.68;46.00;97075.75;4941380;29;20465;-71
2023/02/23 12:54:33;;;;;;;9.83;5.30;;;;;;;17.64;46.13;97066.56;4950825;28;20464;-70
2023/02/23 12:57:04;;;;;;;9.67;5.30;;;;;;;17.59;46.45;97063.69;4954991;28;20892;-70